createdAt,value
2023-04-02T00:02:21.315Z,99225.59
2023-04-02T00:05:25.993Z,99232.63
2023-04-02T00:08:40.918Z,99229.16
2023-04-02T00:11:48.874Z,99226.22
2023-04-02T00:14:55.194Z,99228.88
2023-04-02T00:17:58.291Z,99229.94
2023-04-02T00:21:09.334Z,99224.81
2023-04-02T00:24:16.017Z,99229.41
2023-04-02T00:27:18.255Z,99233.69
2023-04-02T00:30:20.564Z,99227.25
2023-04-02T00:33:25.922Z,99232.63
2023-04-02T00:36:30.565Z,99221.34
2023-04-02T00:39:41.567Z,99225.34
2023-04-02T00:42:44.715Z,99225.88
2023-04-02T00:45:51.168Z,99230.47
2023-04-02T00:49:12.786Z,99235.25
2023-04-02T00:52:17.679Z,99238.22
2023-04-02T00:55:36.659Z,99243.03
2023-04-02T00:58:40.007Z,99236.84
2023-04-02T01:01:44.986Z,99240.88
2023-04-02T01:05:22.496Z,99240.34
2023-04-02T01:08:46.976Z,99247.59
2023-04-02T01:12:32.109Z,99217.88
2023-04-02T01:15:46.172Z,99231.03
2023-04-02T01:18:54.084Z,99229.94
2023-04-02T01:22:10.985Z,99243.34
2023-04-02T01:25:17.803Z,99238.56
2023-04-02T01:28:25.253Z,99232.91
2023-04-02T01:31:34.170Z,99220.31
2023-04-02T01:34:40.622Z,99240.97
2023-04-02T01:38:04.484Z,99255.72
2023-04-02T01:41:29.104Z,99240.16
2023-04-02T01:44:38.485Z,99238.03
2023-04-02T01:47:41.673Z,99250.09
2023-04-02T01:50:45.533Z,99254.66
2023-04-02T01:53:49.203Z,99242.56
2023-04-02T01:56:58.069Z,99267.53
2023-04-02T02:00:02.023Z,99246.31
2023-04-02T02:03:06.456Z,99268.59
2023-04-02T02:06:13.637Z,99249.81
2023-04-02T02:09:28.688Z,99251.69
2023-04-02T02:12:37.035Z,99227.28
2023-04-02T02:15:45.700Z,99256.78
2023-04-02T02:18:53.509Z,99265.66
2023-04-02T02:22:26.708Z,99279.88
2023-04-02T02:25:35.691Z,99271.53
2023-04-02T02:28:40.585Z,99264.84
2023-04-02T02:31:45.101Z,99241.22
2023-04-02T02:35:24.059Z,99277.44
2023-04-02T02:38:34.077Z,99275.56
2023-04-02T02:42:08.156Z,99278.53
2023-04-02T02:45:16.396Z,99279.06
2023-04-02T02:48:24.754Z,99266.97
2023-04-02T02:51:33.947Z,99268.06
2023-04-02T02:54:45.479Z,99255.47
2023-04-02T02:57:55.520Z,99273.44
2023-04-02T03:01:03.296Z,99269.13
2023-04-02T03:04:10.142Z,99277.44
2023-04-02T03:07:16.531Z,99274.75
2023-04-02T03:10:47.171Z,99243.91
2023-04-02T03:13:58.768Z,99256.78
2023-04-02T03:17:06.912Z,99251.44
2023-04-02T03:20:27.736Z,99257.06
2023-04-02T03:23:35.772Z,99282.56
2023-04-02T03:26:47.694Z,99272.91
2023-04-02T03:30:33.505Z,99263.78
2023-04-02T03:34:05.586Z,99262.72
2023-04-02T03:37:13.169Z,99259.22
2023-04-02T03:40:22.050Z,99268.91
2023-04-02T03:43:28.456Z,99286.31
2023-04-02T03:46:39.636Z,99284.44
2023-04-02T03:50:15.640Z,99254.94
2023-04-02T03:53:21.445Z,99272.66
2023-04-02T03:56:41.139Z,99278.00
2023-04-02T04:00:45.486Z,99286.34
2023-04-02T04:03:51.900Z,99289.81
2023-04-02T04:07:02.116Z,99272.38
2023-04-02T04:10:08.062Z,99285.53
2023-04-02T04:13:16.503Z,99278.25
2023-04-02T04:17:01.990Z,99304.03
2023-04-02T04:20:36.816Z,99294.66
2023-04-02T04:23:51.873Z,99311.03
2023-04-02T04:27:04.009Z,99297.34
2023-04-02T04:30:29.283Z,99303.25
2023-04-02T04:33:41.202Z,99298.13
2023-04-02T04:36:54.779Z,99300.81
2023-04-02T04:40:17.509Z,99326.31
2023-04-02T04:43:45.557Z,99302.41
2023-04-02T04:47:06.135Z,99320.69
2023-04-02T04:50:28.707Z,99323.91
2023-04-02T04:53:47.460Z,99313.44
2023-04-02T04:56:57.796Z,99310.75
2023-04-02T05:00:07.211Z,99316.38
2023-04-02T05:03:21.019Z,99328.19
2023-04-02T05:06:37.476Z,99325.97
2023-04-02T05:09:58.842Z,99325.19
2023-04-02T05:13:07.880Z,99309.31
2023-04-02T05:16:55.374Z,99330.00
2023-04-02T05:20:25.375Z,99325.41
2023-04-02T05:23:33.014Z,99321.16
2023-04-02T05:26:44.700Z,99327.03
2023-04-02T05:29:53.218Z,99314.66
2023-04-02T05:33:12.817Z,99343.34
2023-04-02T05:36:24.488Z,99340.13
2023-04-02T05:39:32.549Z,99355.97
2023-04-02T05:42:37.867Z,99339.34
2023-04-02T05:45:51.885Z,99361.59
2023-04-02T05:48:58.792Z,99354.84
2023-04-02T05:52:03.831Z,99337.66
2023-04-02T05:55:31.351Z,99370.88
2023-04-02T05:58:51.601Z,99365.22
2023-04-02T06:02:16.930Z,99369.75
2023-04-02T06:05:23.167Z,99364.94
2023-04-02T06:08:36.626Z,99364.66
2023-04-02T06:11:47.095Z,99381.00
2023-04-02T06:14:53.159Z,99372.44
2023-04-02T06:18:09.038Z,99377.50
2023-04-02T06:21:16.766Z,99383.16
2023-04-02T06:24:24.594Z,99370.81
2023-04-02T06:27:30.536Z,99382.81
2023-04-02T06:30:37.493Z,99380.38
2023-04-02T06:33:40.767Z,99374.28
2023-04-02T06:36:44.994Z,99390.63
2023-04-02T06:39:49.651Z,99373.69
2023-04-02T06:43:02.317Z,99373.31
2023-04-02T06:46:26.279Z,99382.16
2023-04-02T06:50:04.090Z,99403.88
2023-04-02T06:53:09.698Z,99392.06
2023-04-02T06:56:37.337Z,99400.56
2023-04-02T06:59:42.310Z,99379.94
2023-04-02T07:02:55.330Z,99381.22
2023-04-02T07:05:59.589Z,99383.41
2023-04-02T07:09:03.485Z,99388.50
2023-04-02T07:12:13.472Z,99397.38
2023-04-02T07:15:19.317Z,99362.44
2023-04-02T07:18:30.173Z,99380.69
2023-04-02T07:21:33.805Z,99397.31
2023-04-02T07:24:36.575Z,99387.09
2023-04-02T07:30:57.635Z,99408.88
2023-04-02T07:34:01.300Z,99413.88
2023-04-02T07:37:04.084Z,99406.13
2023-04-02T07:40:12.316Z,99419.88
2023-04-02T07:43:15.131Z,99407.22
2023-04-02T07:46:21.712Z,99419.50
2023-04-02T07:49:24.111Z,99440.19
2023-04-02T07:52:26.552Z,99425.13
2023-04-02T07:55:29.015Z,99415.16
2023-04-02T07:58:33.328Z,99439.81
2023-04-02T08:01:38.716Z,99421.91
2023-04-02T08:04:41.150Z,99446.88
2023-04-02T08:07:44.523Z,99429.44
2023-04-02T08:10:49.348Z,99450.06
2023-04-02T08:13:52.246Z,99430.75
2023-04-02T08:16:57.820Z,99444.69
2023-04-02T08:20:01.296Z,99454.06
2023-04-02T08:23:04.596Z,99439.94
2023-04-02T08:26:07.356Z,99463.25
2023-04-02T08:29:09.887Z,99453.97
2023-04-02T08:32:16.302Z,99464.72
2023-04-02T08:35:24.155Z,99452.22
2023-04-02T08:38:26.708Z,99448.50
2023-04-02T08:41:31.445Z,99470.03
2023-04-02T08:45:02.386Z,99470.31
2023-04-02T08:48:18.262Z,99459.84
2023-04-02T08:51:33.860Z,99475.50
2023-04-02T08:54:46.475Z,99467.94
2023-04-02T08:58:04.471Z,99473.31
2023-04-02T09:01:33.044Z,99484.78
2023-04-02T09:04:44.949Z,99479.41
2023-04-02T09:07:51.072Z,99491.44
2023-04-02T09:11:01.693Z,99478.97
2023-04-02T09:14:07.201Z,99473.81
2023-04-02T09:17:42.732Z,99477.50
2023-04-02T09:20:57.142Z,99486.00
2023-04-02T09:23:59.428Z,99460.16
2023-04-02T09:27:04.777Z,99466.03
2023-04-02T09:30:29.838Z,99490.13
2023-04-02T09:34:01.585Z,99489.06
2023-04-02T09:37:17.778Z,99485.91
2023-04-02T09:40:22.971Z,99485.44
2023-04-02T09:43:41.036Z,99480.84
2023-04-02T09:47:09.740Z,99495.44
2023-04-02T09:50:26.129Z,99503.69
2023-04-02T09:53:32.228Z,99492.91
2023-04-02T09:56:36.911Z,99502.03
2023-04-02T09:59:44.515Z,99495.09
2023-04-02T10:02:47.408Z,99505.19
2023-04-02T10:05:50.587Z,99503.00
2023-04-02T10:08:53.702Z,99497.09
2023-04-02T10:11:56.526Z,99516.34
2023-04-02T10:14:59.954Z,99491.06
2023-04-02T10:18:15.807Z,99513.16
2023-04-02T10:21:31.702Z,99500.28
2023-04-02T10:24:37.076Z,99496.19
2023-04-02T10:27:47.585Z,99515.47
2023-04-02T10:31:32.732Z,99475.50
2023-04-02T10:34:44.091Z,99507.34
2023-04-02T10:37:47.270Z,99510.81
2023-04-02T10:40:58.516Z,99495.44
2023-04-02T10:44:18.993Z,99496.59
2023-04-02T10:47:33.839Z,99478.25
2023-04-02T10:50:50.786Z,99498.28
2023-04-02T10:54:05.373Z,99481.66
2023-04-02T10:57:20.963Z,99484.22
2023-04-02T11:00:31.733Z,99476.97
2023-04-02T11:03:41.672Z,99471.06
2023-04-02T11:06:47.887Z,99491.22
2023-04-02T11:09:52.762Z,99508.31
2023-04-02T11:13:02.381Z,99471.78
2023-04-02T11:16:08.061Z,99475.53
2023-04-02T11:19:18.724Z,99490.44
2023-04-02T11:22:23.448Z,99445.97
2023-04-02T11:25:26.143Z,99448.53
2023-04-02T11:28:41.551Z,99453.09
2023-04-02T11:31:48.003Z,99466.44
2023-04-02T11:35:06.534Z,99477.66
2023-04-02T11:38:18.028Z,99478.47
2023-04-02T11:42:01.274Z,99471.31
2023-04-02T11:45:25.772Z,99475.72
2023-04-02T11:48:36.089Z,99468.56
2023-04-02T11:51:40.775Z,99475.03
2023-04-02T11:54:44.664Z,99472.59
2023-04-02T11:57:59.083Z,99473.81
2023-04-02T12:01:16.727Z,99468.53
2023-04-02T12:04:34.396Z,99463.84
2023-04-02T12:07:56.766Z,99447.38
2023-04-02T12:11:00.785Z,99446.59
2023-04-02T12:14:49.243Z,99460.63
2023-04-02T12:17:51.770Z,99424.75
2023-04-02T12:20:57.527Z,99450.81
2023-04-02T12:24:00.494Z,99444.59
2023-04-02T12:27:24.890Z,99452.66
2023-04-02T12:30:27.391Z,99442.34
2023-04-02T12:33:37.254Z,99440.91
2023-04-02T12:36:43.469Z,99440.13
2023-04-02T12:40:03.343Z,99439.19
2023-04-02T12:43:26.316Z,99428.94
2023-04-02T12:46:30.924Z,99431.72
2023-04-02T12:49:40.634Z,99434.59
2023-04-02T12:52:48.552Z,99407.56
2023-04-02T12:55:54.013Z,99411.16
2023-04-02T12:59:01.224Z,99441.25
2023-04-02T13:02:17.691Z,99417.28
2023-04-02T13:05:36.883Z,99431.53
2023-04-02T13:08:42.181Z,99431.13
2023-04-02T13:11:44.776Z,99429.69
2023-04-02T13:14:48.626Z,99445.63
2023-04-02T13:18:20.544Z,99440.38
2023-04-02T13:21:34.642Z,99435.97
2023-04-02T13:24:36.854Z,99428.59
2023-04-02T13:27:39.290Z,99426.13
2023-04-02T13:30:41.795Z,99431.91
2023-04-02T13:33:44.077Z,99428.72
2023-04-02T13:36:47.141Z,99442.63
2023-04-02T13:39:49.419Z,99456.13
2023-04-02T13:42:51.623Z,99437.47
2023-04-02T13:45:54.735Z,99449.66
2023-04-02T13:48:57.684Z,99437.72
2023-04-02T13:52:03.773Z,99435.31
2023-04-02T13:55:06.440Z,99419.69
2023-04-02T13:58:09.529Z,99437.59
2023-04-02T14:01:12.396Z,99442.16
2023-04-02T14:04:19.940Z,99417.00
2023-04-02T14:07:42.939Z,99430.16
2023-04-02T14:11:07.179Z,99415.44
2023-04-02T14:14:29.436Z,99432.78
2023-04-02T14:17:50.771Z,99434.00
2023-04-02T14:21:16.740Z,99428.22
2023-04-02T14:24:37.341Z,99422.66
2023-04-02T14:28:02.205Z,99441.47
2023-04-02T14:31:11.412Z,99449.47
2023-04-02T14:34:35.451Z,99450.53
2023-04-02T14:37:50.032Z,99458.47
2023-04-02T14:44:12.425Z,99452.38
2023-04-02T14:47:23.273Z,99479.88
2023-04-02T14:50:52.423Z,99479.91
2023-04-02T14:54:00.231Z,99470.91
2023-04-02T14:57:35.112Z,99503.06
2023-04-02T15:00:41.868Z,99501.22
2023-04-02T15:03:53.429Z,99510.38
2023-04-02T15:07:03.345Z,99510.00
2023-04-02T15:10:27.581Z,99534.50
2023-04-02T15:13:42.079Z,99529.53
2023-04-02T15:16:44.850Z,99537.81
2023-04-02T15:19:52.446Z,99536.91
2023-04-02T15:23:03.484Z,99527.94
2023-04-02T15:26:20.229Z,99518.47
2023-04-02T15:29:55.120Z,99564.34
2023-04-02T15:33:32.090Z,99555.84
2023-04-02T15:36:44.090Z,99571.75
2023-04-02T15:40:18.692Z,99569.41
2023-04-02T15:43:36.898Z,99555.31
2023-04-02T15:46:58.270Z,99584.59
2023-04-02T15:50:39.470Z,99591.81
2023-04-02T15:53:50.118Z,99577.53
2023-04-02T15:57:39.185Z,99573.91
2023-04-02T16:01:08.517Z,99580.81
2023-04-02T16:04:32.556Z,99577.19
2023-04-02T16:07:59.642Z,99574.78
2023-04-02T16:11:02.132Z,99562.25
2023-04-02T16:14:24.670Z,99577.84
2023-04-02T16:17:35.237Z,99567.38
2023-04-02T16:20:42.583Z,99560.75
2023-04-02T16:23:45.778Z,99577.19
2023-04-02T16:26:56.990Z,99578.53
2023-04-02T16:30:14.309Z,99595.69
2023-04-02T16:33:35.258Z,99594.94
2023-04-02T16:37:02.243Z,99618.63
2023-04-02T16:40:33.075Z,99623.81
2023-04-02T16:43:50.000Z,99631.88
2023-04-02T16:47:29.851Z,99627.28
2023-04-02T16:50:56.583Z,99621.91
2023-04-02T16:54:29.628Z,99622.16
2023-04-02T16:57:48.190Z,99625.72
2023-04-02T17:00:59.771Z,99635.69
2023-04-02T17:04:29.813Z,99633.00
2023-04-02T17:07:47.241Z,99614.53
2023-04-02T17:11:08.323Z,99617.22
2023-04-02T17:14:24.308Z,99624.81
2023-04-02T17:17:26.866Z,99657.13
2023-04-02T17:20:32.663Z,99624.94
2023-04-02T17:23:56.230Z,99621.75
2023-04-02T17:27:06.698Z,99641.38
2023-04-02T17:30:19.968Z,99667.28
2023-04-02T17:33:27.188Z,99651.44
2023-04-02T17:36:56.349Z,99673.78
2023-04-02T17:40:21.764Z,99686.44
2023-04-02T17:43:48.623Z,99687.25
2023-04-02T17:47:02.809Z,99694.50
2023-04-02T17:50:39.306Z,99693.16
2023-04-02T17:54:27.761Z,99709.56
2023-04-02T17:58:02.592Z,99706.06
2023-04-02T18:01:14.934Z,99696.66
2023-04-02T18:04:26.536Z,99715.50
2023-04-02T18:08:12.575Z,99695.31
2023-04-02T18:11:47.858Z,99717.38
2023-04-02T18:15:36.362Z,99729.78
2023-04-02T18:18:45.979Z,99713.06
2023-04-02T18:21:57.084Z,99737.56
2023-04-02T18:25:15.129Z,99727.88
2023-04-02T18:28:39.967Z,99763.13
2023-04-02T18:31:56.658Z,99762.31
2023-04-02T18:35:35.625Z,99764.75
2023-04-02T18:38:44.553Z,99761.75
2023-04-02T18:42:44.246Z,99750.19
2023-04-02T18:45:56.520Z,99761.47
2023-04-02T18:49:21.665Z,99773.28
2023-04-02T18:52:27.746Z,99787.28
2023-04-02T18:55:36.132Z,99753.91
2023-04-02T18:59:03.744Z,99803.16
2023-04-02T19:02:28.294Z,99787.53
2023-04-02T19:05:41.611Z,99802.06
2023-04-02T19:09:08.732Z,99814.63
2023-04-02T19:12:32.466Z,99806.25
2023-04-02T19:15:46.231Z,99804.31
2023-04-02T19:19:17.229Z,99820.50
2023-04-02T19:22:30.414Z,99837.47
2023-04-02T19:25:44.670Z,99822.38
2023-04-02T19:28:50.697Z,99843.31
2023-04-02T19:32:26.365Z,99808.22
2023-04-02T19:35:32.686Z,99850.00
2023-04-02T19:38:54.322Z,99864.19
2023-04-02T19:42:16.860Z,99866.84
2023-04-02T19:45:30.340Z,99871.91
2023-04-02T19:49:23.009Z,99878.09
2023-04-02T19:52:25.266Z,99871.34
2023-04-02T19:55:27.588Z,99886.97
2023-04-02T19:58:35.017Z,99899.59
2023-04-02T20:01:38.086Z,99888.53
2023-04-02T20:04:40.482Z,99888.19
2023-04-02T20:07:45.596Z,99905.66
2023-04-02T20:10:48.222Z,99909.19
2023-04-02T20:13:50.901Z,99896.75
2023-04-02T20:16:53.622Z,99919.41
2023-04-02T20:19:55.991Z,99901.03
2023-04-02T20:22:58.289Z,99922.19
2023-04-02T20:26:01.286Z,99904.72
2023-04-02T20:29:04.147Z,99913.91
2023-04-02T20:32:07.508Z,99924.66
2023-04-02T20:35:09.907Z,99925.91
2023-04-02T20:38:16.684Z,99934.03
2023-04-02T20:41:19.561Z,99927.66
2023-04-02T20:44:22.304Z,99950.63
2023-04-02T20:47:24.755Z,99958.13
2023-04-02T20:50:27.585Z,99965.28
2023-04-02T20:53:33.821Z,99973.59
2023-04-02T20:56:38.500Z,99940.16
2023-04-02T20:59:46.145Z,99949.28
2023-04-02T21:02:52.863Z,99981.66
2023-04-02T21:05:55.415Z,99960.25
2023-04-02T21:09:00.762Z,99981.84
2023-04-02T21:12:03.206Z,99971.53
2023-04-02T21:15:06.191Z,99981.28
2023-04-02T21:18:08.546Z,99988.28
2023-04-02T21:21:15.556Z,99956.09
2023-04-02T21:24:19.823Z,100000.06
2023-04-02T21:27:25.816Z,99993.22
2023-04-02T21:30:28.555Z,99998.88
2023-04-02T21:33:32.217Z,100011.63
2023-04-02T21:36:42.670Z,100019.34
2023-04-02T21:39:45.404Z,100001.91
2023-04-02T21:42:47.793Z,100018.78
2023-04-02T21:45:50.437Z,100019.00
2023-04-02T21:48:54.254Z,100005.63
2023-04-02T21:51:57.072Z,100032.25
2023-04-02T21:55:01.963Z,100020.03
2023-04-02T21:58:08.659Z,100040.34
2023-04-02T22:01:26.158Z,100035.75
2023-04-02T22:04:30.809Z,100063.84
2023-04-02T22:07:33.203Z,100045.28
2023-04-02T22:10:36.263Z,100044.91
2023-04-02T22:13:42.729Z,100035.75
2023-04-02T22:16:45.461Z,100065.06
2023-04-02T22:19:47.964Z,100040.03
2023-04-02T22:22:51.447Z,100059.34
2023-04-02T22:25:55.809Z,100029.81
2023-04-02T22:28:59.194Z,100047.84
2023-04-02T22:32:01.470Z,100051.41
2023-04-02T22:35:03.717Z,100064.44
2023-04-02T22:38:06.367Z,100074.75
2023-04-02T22:41:14.405Z,100073.00
2023-04-02T22:44:17.104Z,100076.16
2023-04-02T22:47:19.675Z,100089.88
2023-04-02T22:50:21.959Z,100086.84
2023-04-02T22:53:24.717Z,100091.22
2023-04-02T22:56:32.314Z,100076.72
2023-04-02T22:59:34.743Z,100080.06
2023-04-02T23:02:37.924Z,100062.19
2023-04-02T23:05:42.547Z,100108.38
2023-04-02T23:08:45.725Z,100107.22
2023-04-02T23:11:51.615Z,100096.91
2023-04-02T23:14:53.950Z,100103.66
2023-04-02T23:17:56.315Z,100103.09
2023-04-02T23:21:01.230Z,100109.50
2023-04-02T23:24:03.712Z,100123.78
2023-04-02T23:27:06.332Z,100115.06
2023-04-02T23:30:08.930Z,100098.88
2023-04-02T23:33:11.469Z,100101.56
2023-04-02T23:36:17.179Z,100088.94
2023-04-02T23:39:20.487Z,100109.97
2023-04-02T23:42:23.073Z,100092.94
2023-04-02T23:45:25.385Z,100125.44
2023-04-02T23:48:27.843Z,100102.03
2023-04-02T23:51:33.301Z,100113.06
2023-04-02T23:54:35.708Z,100123.19
2023-04-02T23:57:40.296Z,100132.88
